Time;durP1;ratioP1;P1;durP2;ratioP2;P2;SDS_P1;SDS_P2;PMS_P1;PMS_P2;Temp;Humidity;BMP_temperature;BMP_pressure;BME280_temperature;BME280_humidity;BME280_pressure;Samples;Min_cycle;Max_cycle;Signal;HPM_P1;HPM_P2
2024/03/27 00:01:46;;;;;;;2.23;1.67;;;;;;;5.98;100.00;99022.41;5032211;28;20432;-67
2024/03/27 00:04:12;;;;;;;2.67;1.87;;;;;;;5.95;100.00;99019.25;5048832;28;20053;-68
2024/03/27 00:06:38;;;;;;;3.47;1.70;;;;;;;5.91;100.00;99026.59;4999513;28;20107;-67
2024/03/27 00:09:04;;;;;;;1.83;1.63;;;;;;;5.89;100.00;99027.72;5015957;28;20540;-67
2024/03/27 00:11:30;;;;;;;2.63;1.60;;;;;;;5.86;100.00;99028.81;5031583;28;20480;-67
2024/03/27 00:13:56;;;;;;;4.70;1.80;;;;;;;5.79;100.00;99026.88;5031433;28;20060;-67
2024/03/27 00:16:22;;;;;;;2.13;1.40;;;;;;;5.80;100.00;99036.44;5048303;28;20072;-67
2024/03/27 00:18:48;;;;;;;2.33;1.60;;;;;;;5.77;100.00;99031.44;5031573;28;20052;-67
2024/03/27 00:21:14;;;;;;;3.33;1.63;;;;;;;5.73;100.00;99032.72;5031551;28;20341;-67
2024/03/27 00:23:40;;;;;;;1.83;1.40;;;;;;;5.69;100.00;99031.34;5032831;28;20041;-67
2024/03/27 00:26:05;;;;;;;2.57;1.63;;;;;;;5.65;100.00;99033.44;5049127;28;20037;-69
2024/03/27 00:28:32;;;;;;;3.70;1.73;;;;;;;5.60;100.00;99030.38;5047767;28;20603;-67
2024/03/27 00:30:57;;;;;;;3.37;1.77;;;;;;;5.58;100.00;99027.03;5015759;28;20045;-67
2024/03/27 00:33:23;;;;;;;2.07;1.50;;;;;;;5.59;100.00;99035.78;5034697;28;20076;-67
2024/03/27 00:35:56;;;;;;;2.43;1.53;;;;;;;5.64;100.00;99026.50;5049297;28;20050;-67
2024/03/27 00:38:23;;;;;;;2.87;2.00;;;;;;;5.55;100.00;99032.59;5016320;28;20345;-67
2024/03/27 00:40:49;;;;;;;2.23;1.47;;;;;;;5.54;100.00;99038.00;5032651;28;20053;-67
2024/03/27 00:43:15;;;;;;;2.87;1.70;;;;;;;5.55;100.00;99039.69;5047814;28;20144;-75
2024/03/27 00:45:42;;;;;;;1.87;1.60;;;;;;;5.55;100.00;99037.88;5014643;28;20068;-67
2024/03/27 00:48:08;;;;;;;2.80;1.57;;;;;;;5.50;100.00;99044.53;5031527;28;20129;-67
2024/03/27 00:50:34;;;;;;;3.77;1.70;;;;;;;5.46;100.00;99046.63;4982578;28;20558;-67
2024/03/27 00:53:01;;;;;;;4.17;2.30;;;;;;;5.48;100.00;99042.03;4998154;28;20187;-67
2024/03/27 00:55:26;;;;;;;4.43;1.90;;;;;;;5.45;100.00;99054.66;5047704;28;20111;-69
2024/03/27 00:57:52;;;;;;;1.93;1.70;;;;;;;5.43;100.00;99051.34;5014802;28;20113;-68
2024/03/27 01:00:18;;;;;;;2.00;1.60;;;;;;;5.40;100.00;99044.53;5047972;28;20054;-67
2024/03/27 01:02:47;;;;;;;2.80;1.87;;;;;;;5.50;100.00;99053.28;5031062;28;20041;-67
2024/03/27 01:05:14;;;;;;;3.47;1.80;;;;;;;5.40;100.00;99060.34;5031979;28;20472;-67
2024/03/27 01:07:39;;;;;;;3.07;1.70;;;;;;;5.35;100.00;99056.47;5031352;28;20038;-76
2024/03/27 01:10:08;;;;;;;4.60;2.00;;;;;;;5.33;100.00;99048.72;5014636;28;20049;-67
2024/03/27 01:12:34;;;;;;;3.03;2.10;;;;;;;5.32;100.00;99060.19;5030553;28;20500;-67
2024/03/27 01:15:01;;;;;;;5.47;2.10;;;;;;;5.28;100.00;99055.34;5030757;28;20049;-67
2024/03/27 01:17:27;;;;;;;3.33;1.80;;;;;;;5.25;100.00;99053.84;5030892;28;20052;-67
2024/03/27 01:19:53;;;;;;;4.17;2.23;;;;;;;5.23;100.00;99050.50;5014364;28;20137;-67
2024/03/27 01:22:19;;;;;;;4.63;2.03;;;;;;;5.22;100.00;99054.13;5047028;28;20137;-67
2024/03/27 01:24:44;;;;;;;3.17;1.90;;;;;;;5.17;100.00;99051.06;5030616;28;20444;-69
2024/03/27 01:27:10;;;;;;;5.47;2.27;;;;;;;5.16;100.00;99057.31;5014412;28;20056;-67
2024/03/27 01:29:36;;;;;;;4.07;2.27;;;;;;;5.15;100.00;99047.75;5030597;28;20173;-67
2024/03/27 01:32:01;;;;;;;5.47;2.00;;;;;;;5.12;100.00;99050.63;5013828;28;20177;-67
2024/03/27 01:34:27;;;;;;;4.33;2.27;;;;;;;5.10;100.00;99058.66;5046736;28;20484;-67
2024/03/27 01:36:53;;;;;;;4.27;2.00;;;;;;;5.05;100.00;99058.28;5046932;28;20053;-68
2024/03/27 01:39:20;;;;;;;3.93;2.47;;;;;;;5.14;100.00;99056.59;5030532;28;20544;-67
2024/03/27 01:41:46;;;;;;;3.47;2.20;;;;;;;5.07;100.00;99061.56;5031451;28;20055;-67
2024/03/27 01:44:21;;;;;;;4.43;2.63;;;;;;;5.21;100.00;99066.44;5030790;28;20427;-77
2024/03/27 01:46:48;;;;;;;4.60;2.67;;;;;;;5.10;100.00;99069.19;5030592;28;20069;-67
2024/03/27 01:49:15;;;;;;;6.00;2.60;;;;;;;5.09;100.00;99075.44;5031247;28;20115;-67
2024/03/27 01:51:41;;;;;;;4.13;2.50;;;;;;;5.05;100.00;99073.22;5049618;28;20045;-67
2024/03/27 01:54:08;;;;;;;4.23;2.53;;;;;;;5.03;100.00;99077.78;5016078;28;20107;-67
2024/03/27 01:56:34;;;;;;;5.23;2.20;;;;;;;4.92;100.00;99075.31;5031417;28;20069;-67
2024/03/27 01:59:01;;;;;;;2.87;2.00;;;;;;;5.00;100.00;99081.53;5051086;28;20084;-67
2024/03/27 02:01:29;;;;;;;4.60;2.60;;;;;;;5.02;100.00;99078.75;5050857;28;20037;-67
2024/03/27 02:03:55;;;;;;;3.77;2.10;;;;;;;4.92;100.00;99076.09;5039418;28;20048;-67
2024/03/27 02:06:21;;;;;;;2.97;2.13;;;;;;;4.89;100.00;99076.38;5037934;28;20502;-67
2024/03/27 02:08:49;;;;;;;3.37;2.10;;;;;;;4.95;100.00;99077.66;5037796;28;20040;-67
2024/03/27 02:11:16;;;;;;;4.63;2.03;;;;;;;4.89;100.00;99084.28;5054207;28;20508;-67
2024/03/27 02:13:43;;;;;;;3.60;2.10;;;;;;;4.88;100.00;99087.88;5037592;28;20102;-67
2024/03/27 02:16:09;;;;;;;2.63;1.83;;;;;;;4.87;100.00;99093.28;5035613;28;20092;-67
2024/03/27 02:18:35;;;;;;;4.50;2.47;;;;;;;4.83;100.00;99094.50;5036782;28;20033;-67
2024/03/27 02:21:02;;;;;;;2.20;2.00;;;;;;;4.87;100.00;99101.19;5054505;28;20119;-66
2024/03/27 02:23:31;;;;;;;1.90;1.70;;;;;;;4.90;100.00;99095.63;5055034;28;20060;-67
2024/03/27 02:26:02;;;;;;;3.13;1.80;;;;;;;4.91;100.00;99103.41;5037712;28;20214;-67
2024/03/27 02:28:28;;;;;;;2.50;1.70;;;;;;;4.80;100.00;99108.78;5037428;28;20048;-67
2024/03/27 02:30:53;;;;;;;2.37;1.87;;;;;;;4.81;100.00;99114.88;5053679;28;20048;-68
2024/03/27 02:33:19;;;;;;;4.23;1.73;;;;;;;4.79;100.00;99115.00;5053982;28;20376;-70
2024/03/27 02:35:45;;;;;;;3.10;1.90;;;;;;;4.77;100.00;99118.72;5037294;28;20044;-72
2024/03/27 02:38:11;;;;;;;2.57;1.90;;;;;;;4.77;100.00;99118.72;5037430;28;20060;-67
2024/03/27 02:40:36;;;;;;;3.97;2.00;;;;;;;4.75;100.00;99131.19;5053515;28;20041;-68
2024/03/27 02:43:02;;;;;;;1.90;1.80;;;;;;;4.75;100.00;99120.69;5036800;28;20106;-67
2024/03/27 02:45:28;;;;;;;3.03;1.90;;;;;;;4.75;100.00;99131.19;5054442;28;20052;-67
2024/03/27 02:47:54;;;;;;;5.93;1.90;;;;;;;4.76;100.00;99130.22;5036800;28;20040;-67
2024/03/27 02:50:20;;;;;;;3.80;2.03;;;;;;;4.75;100.00;99139.91;5054230;28;20530;-67
2024/03/27 02:52:45;;;;;;;5.90;2.00;;;;;;;4.72;100.00;99141.97;5053260;28;20044;-76
2024/03/27 02:55:11;;;;;;;4.00;1.90;;;;;;;4.77;100.00;99143.22;5036767;28;20036;-67
2024/03/27 02:57:37;;;;;;;2.53;2.10;;;;;;;4.77;100.00;99135.34;5053513;28;20044;-67
2024/03/27 03:00:07;;;;;;;3.83;2.00;;;;;;;4.71;100.00;99137.66;5036642;28;20048;-67
2024/03/27 03:02:33;;;;;;;3.33;2.20;;;;;;;4.70;100.00;99142.13;5036957;28;20048;-67
2024/03/27 03:04:59;;;;;;;2.77;1.93;;;;;;;4.64;100.00;99131.28;5053426;28;20279;-67
2024/03/27 03:07:24;;;;;;;2.63;1.80;;;;;;;4.61;100.00;99136.81;5053267;28;20052;-67
2024/03/27 03:09:50;;;;;;;4.77;2.00;;;;;;;4.60;100.00;99135.13;5035838;28;20387;-67
2024/03/27 03:12:16;;;;;;;4.10;1.60;;;;;;;4.59;100.00;99139.59;5036448;28;20131;-68
2024/03/27 03:14:41;;;;;;;3.50;1.70;;;;;;;4.58;100.00;99142.34;5036444;28;20048;-67
2024/03/27 03:17:07;;;;;;;3.93;1.83;;;;;;;4.64;100.00;99142.63;5036373;28;20378;-67
2024/03/27 03:19:36;;;;;;;3.47;1.90;;;;;;;4.65;100.00;99148.72;5052853;28;20037;-66
2024/03/27 03:22:04;;;;;;;4.33;2.43;;;;;;;4.60;100.00;99153.53;5052930;28;20053;-68
2024/03/27 03:24:30;;;;;;;3.27;1.80;;;;;;;4.58;100.00;99150.22;5052936;28;20041;-68
2024/03/27 03:26:56;;;;;;;3.73;1.83;;;;;;;4.55;100.00;99153.13;5052793;28;20049;-68
2024/03/27 03:29:22;;;;;;;4.00;1.80;;;;;;;4.54;100.00;99157.53;5053047;28;20033;-67
2024/03/27 03:31:48;;;;;;;3.13;1.97;;;;;;;4.51;100.00;99152.56;5036367;28;20083;-76
2024/03/27 03:34:14;;;;;;;2.60;1.73;;;;;;;4.56;100.00;99167.94;5053016;28;20537;-67
2024/03/27 03:36:40;;;;;;;4.23;1.60;;;;;;;4.55;100.00;99161.00;5036168;28;20047;-68
2024/03/27 03:39:06;;;;;;;2.30;1.70;;;;;;;4.55;100.00;99166.28;5052536;28;20044;-69
2024/03/27 03:41:31;;;;;;;4.00;1.80;;;;;;;4.57;100.00;99166.94;5019508;28;20045;-66
2024/03/27 03:43:57;;;;;;;3.07;2.03;;;;;;;4.64;100.00;99176.81;5052574;28;20044;-66
2024/03/27 03:46:23;;;;;;;3.00;1.80;;;;;;;4.62;100.00;99167.41;5052553;28;20041;-66
2024/03/27 03:48:49;;;;;;;3.97;1.83;;;;;;;4.63;100.00;99176.94;5035968;28;20045;-70
2024/03/27 03:51:14;;;;;;;3.60;1.80;;;;;;;4.78;100.00;99173.00;5035796;28;20114;-67
2024/03/27 03:53:40;;;;;;;2.97;1.67;;;;;;;4.89;100.00;99175.53;5019057;28;20049;-66
2024/03/27 03:56:07;;;;;;;2.10;1.70;;;;;;;5.01;100.00;99185.00;5052054;28;20052;-67
2024/03/27 03:58:33;;;;;;;1.50;1.40;;;;;;;5.09;100.00;99183.34;5053207;28;20056;-66
2024/03/27 04:00:59;;;;;;;2.50;1.40;;;;;;;5.14;100.00;99177.69;5052166;28;20109;-66
2024/03/27 04:03:24;;;;;;;3.20;1.90;;;;;;;5.19;100.00;99183.38;5035358;28;20037;-67
2024/03/27 04:05:50;;;;;;;4.80;2.00;;;;;;;5.25;100.00;99188.09;5053147;28;20135;-67
2024/03/27 04:08:16;;;;;;;3.17;1.80;;;;;;;5.32;100.00;99180.50;5052136;28;20052;-65
2024/03/27 04:10:43;;;;;;;2.60;1.73;;;;;;;5.36;100.00;99177.44;5034274;28;20060;-65
2024/03/27 04:13:08;;;;;;;2.03;1.30;;;;;;;5.45;100.00;99189.78;5050924;28;20057;-66
2024/03/27 04:15:41;;;;;;;2.73;1.47;;;;;;;5.61;100.00;99195.38;5018808;28;20510;-65
2024/03/27 04:18:08;;;;;;;2.53;2.10;;;;;;;5.54;100.00;99188.97;5018709;28;20512;-66
2024/03/27 04:20:34;;;;;;;3.60;2.20;;;;;;;5.56;100.00;99197.56;5017718;28;20053;-66
2024/03/27 04:23:01;;;;;;;2.27;1.60;;;;;;;5.66;100.00;99200.22;5004116;28;20036;-68
2024/03/27 04:25:26;;;;;;;3.20;1.90;;;;;;;5.68;100.00;99201.75;5017791;28;20060;-67
2024/03/27 04:27:52;;;;;;;7.93;3.13;;;;;;;5.76;100.00;99193.97;5034060;28;20471;-67
2024/03/27 04:30:18;;;;;;;4.90;2.20;;;;;;;5.83;100.00;99212.72;5050697;28;20474;-73
2024/03/27 04:32:45;;;;;;;3.37;1.97;;;;;;;5.88;100.00;99206.06;5017403;28;20071;-65
2024/03/27 04:35:10;;;;;;;3.00;2.10;;;;;;;5.94;100.00;99200.25;5001257;28;20124;-66
2024/03/27 04:37:37;;;;;;;3.70;2.40;;;;;;;6.05;100.00;99202.75;5033956;28;20105;-65
2024/03/27 04:40:12;;;;;;;3.90;2.10;;;;;;;6.11;100.00;99196.06;5033918;28;20059;-65
2024/03/27 04:42:39;;;;;;;3.47;2.07;;;;;;;6.20;100.00;99201.31;5003065;28;20041;-65
2024/03/27 04:45:07;;;;;;;2.77;1.90;;;;;;;6.28;100.00;99209.38;5018371;28;20037;-65
2024/03/27 04:47:34;;;;;;;3.33;2.80;;;;;;;6.32;100.00;99207.28;5018269;28;20376;-65
2024/03/27 04:50:01;;;;;;;3.13;2.03;;;;;;;6.43;100.00;99217.66;5018241;28;20051;-66
2024/03/27 04:52:27;;;;;;;3.33;2.30;;;;;;;6.48;100.00;99210.16;5018027;28;20071;-66
2024/03/27 04:54:54;;;;;;;4.07;2.00;;;;;;;6.58;100.00;99208.34;5018021;28;20045;-67
2024/03/27 04:57:19;;;;;;;4.03;2.70;;;;;;;6.59;100.00;99210.00;5002702;28;20048;-65
2024/03/27 04:59:45;;;;;;;3.10;2.20;;;;;;;6.67;100.00;99208.28;5034976;28;20735;-66
2024/03/27 05:02:11;;;;;;;4.67;2.20;;;;;;;6.74;100.00;99214.66;5019091;28;20473;-66
2024/03/27 05:04:37;;;;;;;4.00;2.30;;;;;;;6.80;100.00;99216.72;5052246;28;20485;-65
2024/03/27 05:07:05;;;;;;;3.83;2.00;;;;;;;6.92;100.00;99224.47;5053559;28;20040;-65
2024/03/27 05:09:34;;;;;;;2.55;1.95;;;;;;;7.05;100.00;99219.69;5037228;28;20052;-65
2024/03/27 05:12:01;;;;;;;3.65;2.30;;;;;;;7.09;100.00;99227.16;5057317;28;20201;-68
2024/03/27 05:14:27;;;;;;;7.28;2.25;;;;;;;7.21;100.00;99225.16;5033179;28;20056;-65
2024/03/27 05:16:54;;;;;;;5.55;2.30;;;;;;;7.23;100.00;99228.47;5020438;28;20128;-66
2024/03/27 05:19:19;;;;;;;5.32;2.38;;;;;;;7.30;100.00;99237.50;5020626;28;20044;-66
2024/03/27 05:21:46;;;;;;;2.90;2.30;;;;;;;7.38;100.00;99232.31;5006117;28;20057;-65
2024/03/27 05:24:12;;;;;;;4.35;2.33;;;;;;;7.47;100.00;99231.41;5021725;28;20044;-66
2024/03/27 05:26:38;;;;;;;3.50;2.10;;;;;;;7.60;100.00;99238.00;5016835;28;20114;-66
2024/03/27 05:29:04;;;;;;;2.50;2.20;;;;;;;7.63;100.00;99236.84;5010585;28;20506;-66
2024/03/27 05:31:30;;;;;;;3.65;2.00;;;;;;;7.69;100.00;99242.38;5023555;28;20052;-67
2024/03/27 05:33:57;;;;;;;4.05;2.15;;;;;;;7.78;100.00;99241.47;5041507;28;20064;-67
2024/03/27 05:36:23;;;;;;;2.97;2.00;;;;;;;7.87;100.00;99242.41;5023881;28;20116;-66
2024/03/27 05:38:48;;;;;;;3.95;1.92;;;;;;;7.95;100.00;99248.59;5042758;28;20439;-65
2024/03/27 05:41:14;;;;;;;2.38;2.00;;;;;;;8.02;100.00;99248.84;5017240;28;20067;-66
2024/03/27 05:43:41;;;;;;;2.10;1.83;;;;;;;8.05;100.00;99243.25;5007990;28;20037;-65
2024/03/27 05:46:06;;;;;;;2.72;2.08;;;;;;;8.12;100.00;99246.94;5040113;28;20030;-66
2024/03/27 05:48:32;;;;;;;4.70;1.92;;;;;;;8.18;100.00;99241.88;5008930;28;20379;-65
2024/03/27 05:50:58;;;;;;;3.55;2.42;;;;;;;8.27;100.00;99246.25;5014402;28;20120;-66
2024/03/27 05:53:24;;;;;;;3.25;2.00;;;;;;;8.42;99.91;99246.56;5016691;28;20540;-66
2024/03/27 05:55:56;;;;;;;4.63;2.28;;;;;;;8.73;97.91;99255.72;5008540;28;20048;-66
2024/03/27 05:58:23;;;;;;;2.00;1.77;;;;;;;8.77;97.70;99257.06;5009395;28;20041;-69
2024/03/27 06:00:48;;;;;;;2.45;1.80;;;;;;;8.81;95.82;99254.94;5023515;28;20039;-65
2024/03/27 06:03:14;;;;;;;4.20;2.03;;;;;;;8.94;95.43;99260.63;5027501;28;20048;-65
2024/03/27 06:05:41;;;;;;;3.40;2.13;;;;;;;9.12;93.98;99261.41;4990433;28;20473;-65
2024/03/27 06:08:06;;;;;;;3.67;1.95;;;;;;;9.16;87.64;99260.94;5017102;28;20206;-65
2024/03/27 06:10:32;;;;;;;3.70;2.05;;;;;;;9.28;86.79;99264.97;5042890;28;20649;-65
2024/03/27 06:13:03;;;;;;;2.90;2.10;;;;;;;9.46;85.44;99263.06;5041317;28;20057;-65
2024/03/27 06:15:30;;;;;;;4.47;1.83;;;;;;;9.55;84.23;99262.09;5041723;28;20094;-65
2024/03/27 06:17:56;;;;;;;2.67;1.80;;;;;;;9.64;81.82;99266.41;5041082;28;20051;-66
2024/03/27 06:20:23;;;;;;;4.18;1.70;;;;;;;9.74;79.37;99261.81;5039716;28;20480;-65
2024/03/27 06:22:50;;;;;;;3.38;1.65;;;;;;;9.87;78.50;99248.09;5041983;28;20044;-65
2024/03/27 06:25:17;;;;;;;3.42;1.77;;;;;;;10.03;76.72;99251.59;5008689;28;20037;-65
2024/03/27 06:27:43;;;;;;;2.67;1.65;;;;;;;10.13;74.08;99260.25;5047893;28;20072;-66
2024/03/27 06:30:10;;;;;;;3.67;1.90;;;;;;;10.24;73.70;99256.44;5024562;28;20065;-65
2024/03/27 06:32:37;;;;;;;9.05;1.90;;;;;;;10.31;70.42;99254.81;5041312;28;20045;-65
2024/03/27 06:35:05;;;;;;;5.38;3.22;;;;;;;10.49;69.10;99249.31;5033217;28;20053;-65
2024/03/27 06:37:31;;;;;;;4.32;2.40;;;;;;;10.53;67.79;99255.97;5016719;28;20460;-65
2024/03/27 06:39:57;;;;;;;5.38;2.75;;;;;;;10.63;65.46;99253.94;5033449;28;20056;-65
2024/03/27 06:42:23;;;;;;;6.47;2.38;;;;;;;10.70;63.85;99260.28;5049998;28;20077;-65
2024/03/27 06:44:49;;;;;;;2.30;1.95;;;;;;;10.79;63.14;99260.09;5053410;28;20395;-65
2024/03/27 06:47:15;;;;;;;3.08;1.98;;;;;;;10.86;62.67;99257.56;5020199;28;20033;-65
2024/03/27 06:49:41;;;;;;;3.65;1.90;;;;;;;10.99;62.83;99253.41;5036736;28;20098;-65
2024/03/27 06:52:07;;;;;;;3.17;1.90;;;;;;;11.15;59.35;99247.19;5036802;28;20478;-65
2024/03/27 06:54:32;;;;;;;2.80;1.60;;;;;;;11.30;58.85;99248.16;5036692;28;20428;-65
2024/03/27 06:56:58;;;;;;;6.00;1.80;;;;;;;11.36;57.28;99250.94;5036704;28;20498;-65
2024/03/27 06:59:24;;;;;;;2.85;1.73;;;;;;;11.43;56.76;99248.44;5054845;28;20123;-65
2024/03/27 07:01:49;;;;;;;2.15;1.55;;;;;;;11.53;57.62;99246.41;5053542;28;20492;-65
2024/03/27 07:04:15;;;;;;;5.53;1.60;;;;;;;11.72;57.61;99243.34;5036497;28;20095;-65
2024/03/27 07:06:41;;;;;;;3.38;1.60;;;;;;;11.80;54.32;99244.13;5053394;28;20047;-65
2024/03/27 07:09:08;;;;;;;4.35;1.50;;;;;;;11.95;54.54;99248.72;5037142;28;20049;-65
2024/03/27 07:11:34;;;;;;;2.08;1.38;;;;;;;12.13;54.23;99249.25;5053597;28;20156;-65
2024/03/27 07:14:01;;;;;;;3.55;1.58;;;;;;;12.26;52.79;99236.97;5020258;28;20594;-65
2024/03/27 07:16:27;;;;;;;2.13;1.38;;;;;;;12.48;52.32;99241.47;5053046;28;20055;-65
2024/03/27 07:18:55;;;;;;;3.22;1.30;;;;;;;12.70;50.15;99245.09;5036289;28;20033;-65
2024/03/27 07:21:21;;;;;;;3.13;1.30;;;;;;;12.94;48.37;99250.19;5051520;28;20041;-65
2024/03/27 07:23:47;;;;;;;2.47;1.30;;;;;;;13.13;47.78;99247.84;5036211;28;20050;-65
2024/03/27 07:26:15;;;;;;;1.58;1.10;;;;;;;13.35;46.80;99244.25;4997469;28;20395;-66
2024/03/27 07:28:40;;;;;;;6.28;1.45;;;;;;;13.51;45.44;99246.72;5008923;28;20464;-65
2024/03/27 07:31:06;;;;;;;3.40;1.90;;;;;;;13.91;45.26;99247.19;5038502;28;20037;-65
2024/03/27 07:33:33;;;;;;;7.93;2.80;;;;;;;15.12;43.16;99245.00;5016725;28;20045;-65
2024/03/27 07:35:58;;;;;;;6.45;3.30;;;;;;;17.99;37.97;99261.38;5036421;28;20115;-65
2024/03/27 07:38:24;;;;;;;3.40;2.88;;;;;;;21.66;31.34;99254.00;5032642;28;20037;-66
2024/03/27 07:40:50;;;;;;;5.60;2.50;;;;;;;24.96;25.32;99251.91;5033321;28;20376;-65
2024/03/27 07:43:16;;;;;;;5.53;2.22;;;;;;;27.70;21.57;99260.28;5041689;28;20042;-66
2024/03/27 07:45:42;;;;;;;3.45;2.25;;;;;;;29.79;18.79;99256.34;5019618;28;20470;-65
2024/03/27 07:48:08;;;;;;;3.58;2.67;;;;;;;31.68;17.00;99248.22;5035945;28;20061;-66
2024/03/27 07:50:35;;;;;;;3.83;2.25;;;;;;;33.20;15.09;99251.97;5015698;28;20088;-67
2024/03/27 07:53:01;;;;;;;2.55;1.10;;;;;;;34.03;14.00;99247.16;5026644;28;20048;-66
2024/03/27 07:55:27;;;;;;;2.28;2.08;;;;;;;34.77;13.21;99250.66;5051559;28;20040;-66
2024/03/27 07:57:53;;;;;;;3.67;2.00;;;;;;;35.53;12.42;99247.00;5052918;28;20059;-67
2024/03/27 08:00:19;;;;;;;3.00;1.70;;;;;;;36.15;11.94;99246.38;5052352;28;20044;-67
2024/03/27 08:02:45;;;;;;;2.10;1.88;;;;;;;37.06;11.20;99238.81;5068392;28;20454;-67
2024/03/27 08:05:11;;;;;;;2.13;1.90;;;;;;;37.56;10.91;99242.22;5018845;28;20047;-66
2024/03/27 08:07:37;;;;;;;2.60;1.88;;;;;;;37.86;10.49;99243.63;5052379;28;20463;-66
2024/03/27 08:10:07;;;;;;;2.28;1.90;;;;;;;38.03;10.80;99237.03;5019157;28;20110;-67
2024/03/27 08:12:33;;;;;;;3.53;1.80;;;;;;;38.67;10.30;99237.91;5018953;28;20053;-69
2024/03/27 08:14:59;;;;;;;2.15;1.80;;;;;;;39.17;9.55;99234.56;5035028;28;20114;-67
2024/03/27 08:17:26;;;;;;;4.15;2.00;;;;;;;39.19;8.89;99238.59;5051976;28;20048;-69
2024/03/27 08:19:52;;;;;;;2.92;1.73;;;;;;;39.17;8.92;99240.94;5035463;28;20147;-66
2024/03/27 08:22:19;;;;;;;2.92;2.00;;;;;;;39.10;8.71;99239.94;5018763;28;20131;-67
2024/03/27 08:24:44;;;;;;;3.05;1.90;;;;;;;39.52;8.76;99243.88;5051096;28;20487;-67
2024/03/27 08:27:10;;;;;;;2.05;1.75;;;;;;;40.12;8.70;99229.47;5018591;28;20072;-66
2024/03/27 08:29:36;;;;;;;1.60;1.50;;;;;;;40.70;8.14;99236.81;5018223;28;20045;-67
2024/03/27 08:32:02;;;;;;;4.13;1.67;;;;;;;40.82;7.90;99230.25;5048361;28;20037;-67
2024/03/27 08:34:28;;;;;;;2.03;1.50;;;;;;;41.18;7.67;99227.81;5051382;28;20460;-67
2024/03/27 08:36:55;;;;;;;2.00;1.63;;;;;;;41.23;7.86;99221.13;5018488;28;20095;-68
2024/03/27 08:39:21;;;;;;;1.83;1.58;;;;;;;41.41;7.77;99227.84;5051417;28;20124;-67
2024/03/27 08:41:48;;;;;;;2.97;1.70;;;;;;;41.75;7.29;99222.09;5051243;28;20523;-67
2024/03/27 08:44:15;;;;;;;2.25;1.60;;;;;;;41.81;6.99;99216.19;5034654;28;20052;-67
2024/03/27 08:46:41;;;;;;;6.43;1.67;;;;;;;41.99;6.95;99225.66;5018258;28;20041;-67
2024/03/27 08:49:10;;;;;;;2.00;1.52;;;;;;;42.05;6.87;99222.19;5052075;28;20044;-67
2024/03/27 08:51:36;;;;;;;2.72;1.73;;;;;;;42.37;6.70;99215.09;5050653;28;20053;-67
2024/03/27 08:54:02;;;;;;;1.77;1.45;;;;;;;42.31;6.57;99210.22;5032724;28;20114;-67
2024/03/27 08:56:28;;;;;;;2.08;1.63;;;;;;;42.39;6.55;99207.16;5032029;28;20459;-67
2024/03/27 08:58:54;;;;;;;4.03;1.85;;;;;;;42.39;6.49;99207.16;5027911;28;20483;-68
2024/03/27 09:01:20;;;;;;;6.10;1.83;;;;;;;42.23;6.55;99209.28;5039760;28;20041;-67
2024/03/27 09:03:47;;;;;;;2.30;1.70;;;;;;;42.11;6.63;99211.50;5041990;28;20564;-68
2024/03/27 09:06:14;;;;;;;1.98;1.65;;;;;;;42.07;6.40;99200.28;5024721;28;20055;-67
2024/03/27 09:08:40;;;;;;;4.28;1.58;;;;;;;42.07;6.43;99200.28;5023593;28;20461;-67
2024/03/27 09:11:09;;;;;;;2.83;1.67;;;;;;;43.02;6.06;99191.19;5039626;28;20506;-67
2024/03/27 09:13:36;;;;;;;1.52;1.42;;;;;;;43.27;5.86;99185.84;5044463;28;20130;-67
2024/03/27 09:16:03;;;;;;;1.85;1.60;;;;;;;42.82;5.78;99191.75;5042227;28;20041;-67
2024/03/27 09:18:29;;;;;;;1.92;1.70;;;;;;;42.73;6.01;99191.25;5025768;28;21050;-67
2024/03/27 09:21:03;;;;;;;3.58;1.70;;;;;;;43.11;6.01;99193.69;5039674;28;20124;-70
2024/03/27 09:23:29;;;;;;;2.53;1.58;;;;;;;43.10;5.70;99187.28;5044843;28;20047;-67
2024/03/27 09:25:58;;;;;;;3.10;1.52;;;;;;;43.38;5.60;99183.94;5034454;28;20052;-67
2024/03/27 09:28:24;;;;;;;1.95;1.70;;;;;;;43.40;5.57;99186.34;5034063;28;20136;-67
2024/03/27 09:30:50;;;;;;;3.58;1.80;;;;;;;43.29;5.71;99189.03;5051167;28;20135;-67
2024/03/27 09:33:16;;;;;;;3.83;2.00;;;;;;;43.34;5.83;99185.09;5050408;28;20048;-67
2024/03/27 09:35:43;;;;;;;2.72;1.80;;;;;;;43.36;5.46;99172.34;5050599;28;20063;-66
2024/03/27 09:38:10;;;;;;;3.63;1.70;;;;;;;43.05;5.85;99172.81;5051398;28;20124;-67
2024/03/27 09:40:51;;;;;;;3.15;2.05;;;;;;;43.15;5.60;99172.94;5051484;28;20056;-67
2024/03/27 09:43:18;;;;;;;1.92;1.70;;;;;;;43.04;5.72;99165.63;5033474;28;20139;-67
2024/03/27 09:45:43;;;;;;;2.97;1.77;;;;;;;43.26;5.76;99163.88;5050341;28;20045;-66
2024/03/27 09:48:10;;;;;;;2.28;1.70;;;;;;;43.14;5.57;99157.38;5049392;28;20045;-67
2024/03/27 09:50:36;;;;;;;2.67;1.80;;;;;;;43.21;5.54;99154.63;5050585;28;20156;-66
2024/03/27 09:53:06;;;;;;;1.67;1.58;;;;;;;42.70;5.62;99158.44;5050617;28;20063;-67
2024/03/27 09:55:33;;;;;;;5.53;2.03;;;;;;;42.79;5.51;99150.59;5050365;28;20103;-66
2024/03/27 09:58:03;;;;;;;1.80;1.70;;;;;;;43.02;5.46;99149.25;5051149;28;20048;-67
2024/03/27 10:00:29;;;;;;;5.43;2.30;;;;;;;43.11;5.46;99149.75;5033571;28;20041;-67
2024/03/27 10:02:55;;;;;;;1.80;1.70;;;;;;;43.24;5.36;99147.47;5050362;28;20490;-67
2024/03/27 10:05:25;;;;;;;1.90;1.70;;;;;;;43.35;5.40;99136.38;5000756;28;20437;-66
2024/03/27 10:07:52;;;;;;;2.50;1.88;;;;;;;43.21;5.27;99137.06;5017434;28;20131;-67
2024/03/27 10:10:19;;;;;;;5.80;1.83;;;;;;;43.18;5.27;99124.66;5050585;28;20048;-66
2024/03/27 10:12:46;;;;;;;6.22;1.90;;;;;;;43.17;5.23;99130.63;5050430;28;20065;-67
2024/03/27 10:15:12;;;;;;;3.55;1.88;;;;;;;43.19;5.53;99117.06;5033782;28;20045;-67
2024/03/27 10:17:38;;;;;;;5.03;2.08;;;;;;;42.89;5.54;99122.75;5017395;28;20437;-67
2024/03/27 10:20:05;;;;;;;1.73;1.60;;;;;;;42.69;5.62;99124.09;5054162;28;20048;-67
2024/03/27 10:22:34;;;;;;;4.88;1.90;;;;;;;42.78;5.67;99124.63;5054747;28;20045;-66
2024/03/27 10:25:04;;;;;;;2.97;2.65;;;;;;;42.60;5.68;99123.63;5027021;28;20190;-67
2024/03/27 10:27:34;;;;;;;2.88;2.63;;;;;;;42.39;5.73;99128.97;5035635;28;20037;-67
2024/03/27 10:30:00;;;;;;;2.38;2.00;;;;;;;42.31;5.52;99118.06;5009869;28;20044;-68
2024/03/27 10:32:26;;;;;;;2.10;2.00;;;;;;;42.21;5.74;99121.53;5033515;28;20052;-68
2024/03/27 10:34:53;;;;;;;3.85;1.73;;;;;;;41.96;6.01;99117.59;5036398;28;20041;-67
2024/03/27 10:37:19;;;;;;;5.47;1.90;;;;;;;41.86;5.94;99123.81;5059498;28;20037;-67
2024/03/27 10:39:50;;;;;;;3.40;1.88;;;;;;;42.11;5.90;99130.53;5045151;28;20044;-66
2024/03/27 10:42:22;;;;;;;2.75;1.10;;;;;;;41.44;5.83;99133.09;5027906;28;20138;-67
2024/03/27 10:44:59;;;;;;;3.38;1.90;;;;;;;40.58;6.46;99127.50;5046464;28;20454;-67
2024/03/27 10:47:32;;;;;;;3.47;1.88;;;;;;;40.66;6.60;99116.13;5012205;28;20033;-67
2024/03/27 10:49:59;;;;;;;3.33;1.98;;;;;;;41.08;6.29;99118.91;5024892;28;20088;-68
2024/03/27 10:52:31;;;;;;;2.38;2.05;;;;;;;40.95;6.11;99115.50;5059726;28;20103;-67
2024/03/27 10:54:56;;;;;;;2.20;1.90;;;;;;;40.92;6.33;99121.03;5025937;28;20069;-67
2024/03/27 10:57:22;;;;;;;2.15;1.65;;;;;;;40.74;6.09;99126.25;5036516;28;20138;-67
2024/03/27 10:59:49;;;;;;;3.42;2.10;;;;;;;40.87;6.00;99127.72;5044634;28;20048;-67
2024/03/27 11:02:18;;;;;;;2.85;1.65;;;;;;;40.66;6.13;99121.69;5003053;28;20036;-68
2024/03/27 11:04:54;;;;;;;1.70;1.58;;;;;;;40.78;6.16;99118.75;5011053;28;20041;-68
2024/03/27 11:07:21;;;;;;;2.47;1.77;;;;;;;40.31;6.24;99114.63;5049902;28;20459;-67
2024/03/27 11:09:51;;;;;;;2.35;1.70;;;;;;;40.17;6.16;99106.75;5002664;28;20041;-67
2024/03/27 11:12:24;;;;;;;2.53;1.70;;;;;;;39.72;6.53;99101.75;5041566;28;20037;-67
2024/03/27 11:14:52;;;;;;;3.55;1.30;;;;;;;39.26;6.87;99107.41;5042955;28;20521;-68
2024/03/27 11:17:18;;;;;;;3.58;1.10;;;;;;;37.27;7.43;99106.66;5011456;28;20087;-67
2024/03/27 11:19:46;;;;;;;2.75;1.70;;;;;;;36.31;8.18;99104.41;5044366;28;20049;-67
2024/03/27 11:22:14;;;;;;;;;;;;;;;36.11;8.30;99109.91;5050122;28;20045;-68
2024/03/27 11:24:45;;;;;;;3.70;1.50;;;;;;;36.24;7.94;99106.09;5051216;28;19978;-67
2024/03/27 11:27:11;;;;;;;2.38;1.48;;;;;;;36.59;7.85;99105.44;5044839;28;20112;-68
2024/03/27 11:29:38;;;;;;;2.75;1.60;;;;;;;36.78;7.88;99111.28;5045091;28;20041;-67
2024/03/27 11:32:09;;;;;;;3.28;1.60;;;;;;;36.86;7.73;99106.78;5033585;28;20045;-68
2024/03/27 11:34:35;;;;;;;2.08;1.20;;;;;;;36.60;7.89;99104.28;5020108;28;20052;-68